createdAt,value
2022-11-25T00:00:11.444Z,9.73
2022-11-25T00:02:45.857Z,9.62
2022-11-25T00:05:15.431Z,9.46
2022-11-25T00:07:45.022Z,9.51
2022-11-25T00:10:14.693Z,9.57
2022-11-25T00:12:46.759Z,9.59
2022-11-25T00:15:16.379Z,9.62
2022-11-25T00:17:45.916Z,9.65
2022-11-25T00:20:15.680Z,9.63
2022-11-25T00:22:45.130Z,9.66
2022-11-25T00:25:14.615Z,9.68
2022-11-25T00:27:46.620Z,9.70
2022-11-25T00:30:17.216Z,9.60
2022-11-25T00:32:46.676Z,9.55
2022-11-25T00:35:16.182Z,9.45
2022-11-25T00:37:45.616Z,9.42
2022-11-25T00:40:16.310Z,9.29
2022-11-25T00:43:06.684Z,9.35
2022-11-25T00:45:36.169Z,9.45
2022-11-25T00:48:05.675Z,9.36
2022-11-25T00:50:35.145Z,9.38
2022-11-25T00:53:04.578Z,9.44
2022-11-25T00:55:54.511Z,9.51
2022-11-25T00:58:26.618Z,9.51
2022-11-25T01:00:56.184Z,9.55
2022-11-25T01:03:25.698Z,9.57
2022-11-25T01:05:55.159Z,9.56
2022-11-25T01:08:24.595Z,9.51
2022-11-25T01:11:01.263Z,9.45
2022-11-25T01:13:33.335Z,9.23
2022-11-25T01:16:03.971Z,9.29
2022-11-25T01:18:33.714Z,9.19
2022-11-25T01:21:08.663Z,8.97
2022-11-25T01:23:38.147Z,8.92
2022-11-25T01:26:08.343Z,9.09
2022-11-25T01:28:40.336Z,9.24
2022-11-25T01:31:10.806Z,9.25
2022-11-25T01:33:40.443Z,9.28
2022-11-25T01:36:11.504Z,9.28
2022-11-25T01:38:40.786Z,9.22
2022-11-25T01:41:11.349Z,9.17
2022-11-25T01:43:43.678Z,9.14
2022-11-25T01:46:19.452Z,9.11
2022-11-25T01:48:51.475Z,9.13
2022-11-25T01:51:21.988Z,9.10
2022-11-25T01:53:51.745Z,9.09
2022-11-25T01:56:21.384Z,9.03
2022-11-25T01:58:53.575Z,9.00
2022-11-25T02:01:24.223Z,8.96
2022-11-25T02:03:54.397Z,8.92
2022-11-25T02:06:25.518Z,8.93
2022-11-25T02:08:56.289Z,8.97
2022-11-25T02:11:26.161Z,8.96
2022-11-25T02:13:58.430Z,8.98
2022-11-25T02:16:28.112Z,9.05
2022-11-25T02:18:57.745Z,9.05
2022-11-25T02:21:29.051Z,8.94
2022-11-25T02:24:01.593Z,9.02
2022-11-25T02:26:33.802Z,9.04
2022-11-25T02:29:03.429Z,8.97
2022-11-25T02:31:33.102Z,8.96
2022-11-25T02:34:02.849Z,8.98
2022-11-25T02:36:32.323Z,8.96
2022-11-25T02:39:02.307Z,8.99
2022-11-25T02:41:35.064Z,8.94
2022-11-25T02:44:04.506Z,8.97
2022-11-25T02:46:33.978Z,8.96
2022-11-25T02:49:11.024Z,8.96
2022-11-25T02:51:41.532Z,8.96
2022-11-25T02:54:10.966Z,8.98
2022-11-25T02:56:43.047Z,9.00
2022-11-25T02:59:12.725Z,9.04
2022-11-25T03:01:42.296Z,9.07
2022-11-25T03:04:12.000Z,9.13
2022-11-25T03:06:41.591Z,9.10
2022-11-25T03:09:11.122Z,9.11
2022-11-25T03:11:55.652Z,9.15
2022-11-25T03:14:25.108Z,9.18
2022-11-25T03:16:54.606Z,9.18
2022-11-25T03:19:24.120Z,9.15
2022-11-25T03:21:53.614Z,9.20
2022-11-25T03:24:23.307Z,9.13
2022-11-25T03:26:55.385Z,8.61
2022-11-25T03:29:24.868Z,8.57
2022-11-25T03:31:54.412Z,8.53
2022-11-25T03:34:23.945Z,8.73
2022-11-25T03:36:53.471Z,8.89
2022-11-25T03:39:23.725Z,8.97
2022-11-25T03:41:55.813Z,9.01
2022-11-25T03:44:25.290Z,9.01
2022-11-25T03:46:54.792Z,9.02
2022-11-25T03:49:24.578Z,9.04
2022-11-25T03:51:54.015Z,9.02
2022-11-25T03:54:23.459Z,8.95
2022-11-25T03:56:55.499Z,8.93
2022-11-25T03:59:25.113Z,8.92
2022-11-25T04:01:54.638Z,8.89
2022-11-25T04:04:24.112Z,8.89
2022-11-25T04:06:53.537Z,8.91
2022-11-25T04:09:23.075Z,8.95
2022-11-25T04:12:07.572Z,9.00
2022-11-25T04:14:37.345Z,9.06
2022-11-25T04:17:07.030Z,9.03
2022-11-25T04:19:36.529Z,9.06
2022-11-25T04:22:06.071Z,9.04
2022-11-25T04:24:35.840Z,9.04
2022-11-25T04:27:08.092Z,9.06
2022-11-25T04:29:37.554Z,9.09
2022-11-25T04:32:07.664Z,9.13
2022-11-25T04:34:37.270Z,9.14
2022-11-25T04:37:06.866Z,9.11
2022-11-25T04:39:36.326Z,8.99
2022-11-25T04:42:33.970Z,8.78
2022-11-25T04:47:52.994Z,8.89
2022-11-25T04:50:23.530Z,8.86
2022-11-25T04:52:52.973Z,8.89
2022-11-25T04:55:22.456Z,8.91
2022-11-25T04:57:54.506Z,8.64
2022-11-25T05:00:21.728Z,8.66
2022-11-25T05:02:51.295Z,8.61
2022-11-25T05:05:20.811Z,8.76
2022-11-25T05:07:50.446Z,8.82
2022-11-25T05:10:20.143Z,8.90
2022-11-25T05:12:49.616Z,8.97
2022-11-25T05:15:21.659Z,8.98
2022-11-25T05:17:51.105Z,8.78
2022-11-25T05:20:21.413Z,8.86
2022-11-25T05:22:50.952Z,8.56
2022-11-25T05:25:20.935Z,8.50
2022-11-25T05:27:50.392Z,8.57
2022-11-25T05:30:22.647Z,8.79
2022-11-25T05:32:52.114Z,9.11
2022-11-25T05:35:22.084Z,9.30
2022-11-25T05:37:51.507Z,9.32
2022-11-25T05:40:20.986Z,9.28
2022-11-25T05:42:50.695Z,9.25
2022-11-25T05:45:22.758Z,9.23
2022-11-25T05:47:52.215Z,9.23
2022-11-25T05:50:21.671Z,9.14
2022-11-25T05:52:51.185Z,9.15
2022-11-25T05:55:20.639Z,9.14
2022-11-25T05:57:50.075Z,9.15
2022-11-25T06:00:26.624Z,9.14
2022-11-25T06:02:56.589Z,9.16
2022-11-25T06:05:26.196Z,9.13
2022-11-25T06:07:55.722Z,9.15
2022-11-25T06:10:25.298Z,9.01
2022-11-25T06:12:55.403Z,8.94
2022-11-25T06:15:27.455Z,8.95
2022-11-25T06:17:56.881Z,8.98
2022-11-25T06:20:27.148Z,9.01
2022-11-25T06:22:56.644Z,8.99
2022-11-25T06:25:26.136Z,9.07
2022-11-25T06:28:12.281Z,9.11
2022-11-25T06:30:45.221Z,9.16
2022-11-25T06:33:14.952Z,9.16
2022-11-25T06:35:44.430Z,9.18
2022-11-25T06:38:13.882Z,9.19
2022-11-25T06:40:43.340Z,9.22
2022-11-25T06:43:12.804Z,9.27
2022-11-25T06:45:44.858Z,9.25
2022-11-25T06:48:14.332Z,9.21
2022-11-25T06:50:43.804Z,9.23
2022-11-25T06:53:13.275Z,9.15
2022-11-25T06:55:42.702Z,9.14
2022-11-25T06:58:34.263Z,9.15
2022-11-25T07:01:09.463Z,8.86
2022-11-25T07:03:38.968Z,8.86
2022-11-25T07:06:09.042Z,8.99
2022-11-25T07:08:38.547Z,9.01
2022-11-25T07:11:09.035Z,8.98
2022-11-25T07:13:38.527Z,9.03
2022-11-25T07:16:11.295Z,9.09
2022-11-25T07:18:41.389Z,8.99
2022-11-25T07:21:11.937Z,8.82
2022-11-25T07:23:41.475Z,8.64
2022-11-25T07:26:12.096Z,8.22
2022-11-25T07:28:41.637Z,8.14
2022-11-25T07:31:27.593Z,8.46
2022-11-25T07:33:59.396Z,8.74
2022-11-25T07:36:28.928Z,8.92
2022-11-25T07:38:58.424Z,9.00
2022-11-25T07:41:28.681Z,9.09
2022-11-25T07:43:59.022Z,9.10
2022-11-25T07:46:31.922Z,9.11
2022-11-25T07:49:02.326Z,9.02
2022-11-25T07:51:33.215Z,8.96
2022-11-25T07:54:03.397Z,9.01
2022-11-25T07:56:32.986Z,9.12
2022-11-25T07:59:02.539Z,9.23
2022-11-25T08:01:34.753Z,9.33
2022-11-25T08:04:04.307Z,9.49
2022-11-25T08:06:33.858Z,9.50
2022-11-25T08:09:03.438Z,9.44
2022-11-25T08:11:33.694Z,9.66
2022-11-25T08:14:03.245Z,9.76
2022-11-25T08:16:35.414Z,9.84
2022-11-25T08:19:07.156Z,9.57
2022-11-25T08:21:36.711Z,9.50
2022-11-25T08:24:06.541Z,9.54
2022-11-25T08:26:38.402Z,9.36
2022-11-25T08:29:09.382Z,9.57
2022-11-25T08:31:42.685Z,9.64
2022-11-25T08:34:12.365Z,9.74
2022-11-25T08:36:47.786Z,9.78
2022-11-25T08:39:44.096Z,9.82
2022-11-25T08:42:08.054Z,9.82
2022-11-25T08:44:37.670Z,9.76
2022-11-25T08:47:10.128Z,9.75
2022-11-25T08:49:41.549Z,9.65
2022-11-25T08:52:11.669Z,9.72
2022-11-25T08:54:41.358Z,9.67
2022-11-25T08:57:10.827Z,9.49
2022-11-25T08:59:43.850Z,9.51
2022-11-25T09:02:18.314Z,9.09
2022-11-25T09:04:47.861Z,8.81
2022-11-25T09:07:17.461Z,8.63
2022-11-25T09:09:46.984Z,8.99
2022-11-25T09:12:16.479Z,9.22
2022-11-25T09:14:45.935Z,9.45
2022-11-25T09:17:18.245Z,9.26
2022-11-25T09:19:47.710Z,9.61
2022-11-25T09:22:17.212Z,9.09
2022-11-25T09:24:46.727Z,9.57
2022-11-25T09:27:16.215Z,9.66
2022-11-25T09:29:45.698Z,9.89
2022-11-25T09:32:17.828Z,9.81
2022-11-25T09:34:47.307Z,9.88
2022-11-25T09:37:16.851Z,9.70
2022-11-25T09:39:46.323Z,9.92
2022-11-25T09:42:37.977Z,10.51
2022-11-25T09:45:26.498Z,10.79
2022-11-25T09:48:03.359Z,10.96
2022-11-25T09:50:43.585Z,11.26
2022-11-25T09:53:17.335Z,11.41
2022-11-25T09:55:48.506Z,11.51
2022-11-25T09:58:19.976Z,11.61
2022-11-25T10:00:50.388Z,11.65
2022-11-25T10:03:29.954Z,11.92
2022-11-25T10:06:01.872Z,12.06
2022-11-25T10:08:36.241Z,11.51
2022-11-25T10:11:06.615Z,11.50
2022-11-25T10:13:40.004Z,10.98
2022-11-25T10:16:10.612Z,10.45
2022-11-25T10:18:45.283Z,10.32
2022-11-25T10:21:14.809Z,10.11
2022-11-25T10:23:44.335Z,9.78
2022-11-25T10:26:16.370Z,10.03
2022-11-25T10:28:48.314Z,10.37
2022-11-25T10:31:19.477Z,10.65
2022-11-25T10:33:52.960Z,10.94
2022-11-25T10:36:23.658Z,10.84
2022-11-25T10:38:55.291Z,10.63
2022-11-25T10:41:26.455Z,10.46
2022-11-25T10:43:55.678Z,10.25
2022-11-25T10:46:49.669Z,10.27
2022-11-25T10:49:23.114Z,10.81
2022-11-25T10:51:54.709Z,10.92
2022-11-25T10:54:27.919Z,10.75
2022-11-25T10:56:59.309Z,10.60
2022-11-25T10:59:30.869Z,11.12
2022-11-25T11:02:19.191Z,11.30
2022-11-25T11:04:59.883Z,10.61
2022-11-25T11:07:30.265Z,10.48
2022-11-25T11:10:17.597Z,11.28
2022-11-25T11:12:54.756Z,12.09
2022-11-25T11:15:25.404Z,12.35
2022-11-25T11:17:55.012Z,12.35
2022-11-25T11:20:27.744Z,11.93
2022-11-25T11:23:05.540Z,11.58
2022-11-25T11:25:38.586Z,11.33
2022-11-25T11:28:27.727Z,11.09
2022-11-25T11:30:59.804Z,11.10
2022-11-25T11:33:36.704Z,10.26
2022-11-25T11:36:21.266Z,10.47
2022-11-25T11:38:55.453Z,10.22
2022-11-25T11:41:33.023Z,9.72
2022-11-25T11:44:18.968Z,9.65
2022-11-25T11:47:01.901Z,10.01
2022-11-25T11:49:55.436Z,10.70
2022-11-25T11:52:31.276Z,11.18
2022-11-25T11:55:03.434Z,11.39
2022-11-25T11:57:37.342Z,11.57
2022-11-25T12:00:07.440Z,11.71
2022-11-25T12:02:49.650Z,11.75
2022-11-25T12:05:22.104Z,11.70
2022-11-25T12:08:00.775Z,11.90
2022-11-25T12:10:31.516Z,12.15
2022-11-25T12:13:04.552Z,12.23
2022-11-25T12:15:39.582Z,12.47
2022-11-25T12:18:15.037Z,12.27
2022-11-25T12:20:47.234Z,12.16
2022-11-25T12:23:25.320Z,11.48
2022-11-25T12:25:55.658Z,11.71
2022-11-25T12:28:27.123Z,11.37
2022-11-25T12:31:04.981Z,11.44
2022-11-25T12:33:43.919Z,11.68
2022-11-25T12:36:14.897Z,12.10
2022-11-25T12:38:49.008Z,12.13
2022-11-25T12:41:23.313Z,11.71
2022-11-25T12:43:53.562Z,11.01
2022-11-25T12:46:27.558Z,11.48
2022-11-25T12:48:57.326Z,11.52
2022-11-25T12:51:34.227Z,11.75
2022-11-25T12:54:13.410Z,11.69
2022-11-25T12:56:53.533Z,11.98
2022-11-25T12:59:35.750Z,11.96
2022-11-25T13:02:18.313Z,12.14
2022-11-25T13:05:32.886Z,12.36
2022-11-25T13:07:59.594Z,12.49
2022-11-25T13:10:37.030Z,12.60
2022-11-25T13:13:18.507Z,12.70
2022-11-25T13:15:48.740Z,12.59
2022-11-25T13:18:20.147Z,12.69
2022-11-25T13:20:50.466Z,12.95
2022-11-25T13:23:25.632Z,12.99
2022-11-25T13:26:32.671Z,13.01
2022-11-25T13:29:02.384Z,12.97
2022-11-25T13:31:34.221Z,12.92
2022-11-25T13:34:12.105Z,12.90
2022-11-25T13:36:48.992Z,12.85
2022-11-25T13:39:19.156Z,12.87
2022-11-25T13:41:52.230Z,12.86
2022-11-25T13:44:28.189Z,12.88
2022-11-25T13:46:58.396Z,12.91
2022-11-25T13:49:41.111Z,12.91
2022-11-25T13:52:31.143Z,13.03
2022-11-25T13:55:00.593Z,13.28
2022-11-25T13:57:34.742Z,13.48
2022-11-25T14:00:04.889Z,13.57
2022-11-25T14:02:38.251Z,13.61
2022-11-25T14:05:37.518Z,13.27
2022-11-25T14:08:13.804Z,12.92
2022-11-25T14:10:47.703Z,12.69
2022-11-25T14:13:29.166Z,12.69
2022-11-25T14:16:14.639Z,13.07
2022-11-25T14:19:34.999Z,13.32
2022-11-25T14:21:56.433Z,13.50
2022-11-25T14:24:38.901Z,13.63
2022-11-25T14:27:13.568Z,13.60
2022-11-25T14:29:48.139Z,13.66
2022-11-25T14:32:18.633Z,13.58
2022-11-25T14:34:49.825Z,13.50
2022-11-25T14:37:20.472Z,13.60
2022-11-25T14:39:52.171Z,13.61
2022-11-25T14:42:22.463Z,13.74
2022-11-25T14:44:56.024Z,13.67
2022-11-25T14:47:26.198Z,13.31
2022-11-25T14:52:47.692Z,13.19
2022-11-25T14:55:17.302Z,13.32
2022-11-25T14:57:47.308Z,13.26
2022-11-25T15:00:20.368Z,13.20
2022-11-25T15:02:57.238Z,13.12
2022-11-25T15:05:28.477Z,13.01
2022-11-25T15:08:03.209Z,12.92
2022-11-25T15:10:43.276Z,12.78
2022-11-25T15:13:16.008Z,12.69
2022-11-25T15:15:50.217Z,12.70
2022-11-25T15:18:21.387Z,12.65
2022-11-25T15:20:50.847Z,12.73
2022-11-25T15:23:32.003Z,12.73
2022-11-25T15:26:01.983Z,12.71
2022-11-25T15:28:37.081Z,12.72
2022-11-25T15:31:13.845Z,12.65
2022-11-25T15:33:43.433Z,12.61
2022-11-25T15:36:12.982Z,12.67
2022-11-25T15:38:44.264Z,12.61
2022-11-25T15:41:20.518Z,12.45
2022-11-25T15:43:50.672Z,12.48
2022-11-25T15:46:22.821Z,12.31
2022-11-25T15:48:52.776Z,12.05
2022-11-25T15:51:32.378Z,11.82
2022-11-25T15:54:03.715Z,11.99
2022-11-25T15:56:33.220Z,11.96
2022-11-25T15:59:02.727Z,12.17
2022-11-25T16:01:34.882Z,12.29
2022-11-25T16:04:18.920Z,12.42
2022-11-25T16:06:55.908Z,12.45
2022-11-25T16:09:31.281Z,12.48
2022-11-25T16:12:07.740Z,12.53
2022-11-25T16:14:37.792Z,12.50
2022-11-25T16:17:12.928Z,12.46
2022-11-25T16:19:43.882Z,12.40
2022-11-25T16:22:15.151Z,12.37
2022-11-25T16:24:53.031Z,12.38
2022-11-25T16:27:26.105Z,12.35
2022-11-25T16:29:59.907Z,12.36
2022-11-25T16:32:33.031Z,12.36
2022-11-25T16:35:05.880Z,12.34
2022-11-25T16:37:35.403Z,12.32
2022-11-25T16:40:04.908Z,12.27
2022-11-25T16:42:34.820Z,12.29
2022-11-25T16:45:04.294Z,12.27
2022-11-25T16:47:36.394Z,12.21
2022-11-25T16:50:14.406Z,12.20
2022-11-25T16:52:44.231Z,12.25
2022-11-25T16:55:13.770Z,12.23
2022-11-25T16:57:43.347Z,12.20
2022-11-25T17:00:16.904Z,12.28
2022-11-25T17:02:50.694Z,12.25
2022-11-25T17:05:21.490Z,12.18
2022-11-25T17:07:51.323Z,12.17
2022-11-25T17:10:21.607Z,12.26
2022-11-25T17:12:51.172Z,12.09
2022-11-25T17:15:21.553Z,11.99
2022-11-25T17:17:53.928Z,11.87
2022-11-25T17:20:26.065Z,11.77
2022-11-25T17:22:55.745Z,11.75
2022-11-25T17:25:25.671Z,11.77
2022-11-25T17:27:55.173Z,11.73
2022-11-25T17:30:25.916Z,11.75
2022-11-25T17:33:00.429Z,11.74
2022-11-25T17:35:29.913Z,11.78
2022-11-25T17:37:59.547Z,11.86
2022-11-25T17:40:29.118Z,11.86
2022-11-25T17:42:58.665Z,11.94
2022-11-25T17:45:29.533Z,11.92
2022-11-25T17:48:01.704Z,12.04
2022-11-25T17:50:31.183Z,12.03
2022-11-25T17:53:01.290Z,12.06
2022-11-25T17:55:30.784Z,11.92
2022-11-25T17:58:00.293Z,11.85
2022-11-25T18:00:29.961Z,11.80
2022-11-25T18:03:02.149Z,11.78
2022-11-25T18:05:31.788Z,11.77
2022-11-25T18:08:01.364Z,11.75
2022-11-25T18:10:30.904Z,11.71
2022-11-25T18:13:00.397Z,11.70
2022-11-25T18:15:30.907Z,11.61
2022-11-25T18:18:05.239Z,11.60
2022-11-25T18:20:34.900Z,11.51
2022-11-25T18:23:04.374Z,11.48
2022-11-25T18:25:34.591Z,11.37
2022-11-25T18:28:04.147Z,11.28
2022-11-25T18:30:34.532Z,11.25
2022-11-25T18:33:09.106Z,11.20
2022-11-25T18:35:38.609Z,11.16
2022-11-25T18:38:08.275Z,11.02
2022-11-25T18:40:40.184Z,11.01
2022-11-25T18:43:10.100Z,10.94
2022-11-25T18:45:40.397Z,10.90
2022-11-25T18:48:17.879Z,10.79
2022-11-25T18:50:47.615Z,10.76
2022-11-25T18:53:17.203Z,10.90
2022-11-25T18:55:46.778Z,10.85
2022-11-25T18:58:18.362Z,10.80
2022-11-25T19:00:48.591Z,10.89
2022-11-25T19:03:22.454Z,10.91
2022-11-25T19:05:52.124Z,10.96
2022-11-25T19:08:21.631Z,10.89
2022-11-25T19:10:51.166Z,10.87
2022-11-25T19:13:22.044Z,10.79
2022-11-25T19:15:51.551Z,10.82
2022-11-25T19:18:26.707Z,10.79
2022-11-25T19:20:56.275Z,10.69
2022-11-25T19:23:28.808Z,10.67
2022-11-25T19:26:01.084Z,10.56
2022-11-25T19:28:30.616Z,10.60
2022-11-25T19:31:04.464Z,10.59
2022-11-25T19:33:37.478Z,10.67
2022-11-25T19:36:07.389Z,10.63
2022-11-25T19:38:36.843Z,10.63
2022-11-25T19:41:06.306Z,10.63
2022-11-25T19:43:35.786Z,10.56
2022-11-25T19:46:05.734Z,10.56
2022-11-25T19:48:39.134Z,10.60
2022-11-25T19:51:08.792Z,10.58
2022-11-25T19:53:38.256Z,10.62
2022-11-25T19:56:08.922Z,10.63
2022-11-25T19:58:38.343Z,10.55
2022-11-25T20:01:08.165Z,10.57
2022-11-25T20:03:45.069Z,10.58
2022-11-25T20:06:17.808Z,10.59
2022-11-25T20:08:47.320Z,10.63
2022-11-25T20:11:17.304Z,10.62
2022-11-25T20:13:46.966Z,10.55
2022-11-25T20:16:18.219Z,10.53
2022-11-25T20:18:50.263Z,10.54
2022-11-25T20:21:22.465Z,10.59
2022-11-25T20:23:51.896Z,10.55
2022-11-25T20:26:22.811Z,10.55
2022-11-25T20:28:52.275Z,10.55
2022-11-25T20:31:22.170Z,10.48
2022-11-25T20:33:54.888Z,10.46
2022-11-25T20:36:25.829Z,10.46
2022-11-25T20:38:58.864Z,10.41
2022-11-25T20:41:28.354Z,10.46
2022-11-25T20:43:58.086Z,10.45
2022-11-25T20:46:29.469Z,10.48
2022-11-25T20:49:02.292Z,10.49
2022-11-25T20:51:31.866Z,10.44
2022-11-25T20:54:03.326Z,10.42
2022-11-25T20:56:33.021Z,10.37
2022-11-25T20:59:02.448Z,10.37
2022-11-25T21:01:31.908Z,10.38
2022-11-25T21:04:03.946Z,10.34
2022-11-25T21:06:36.574Z,10.18
2022-11-25T21:09:13.419Z,10.21
2022-11-25T21:11:42.879Z,10.24
2022-11-25T21:14:13.806Z,10.26
2022-11-25T21:16:43.283Z,10.13
2022-11-25T21:19:15.409Z,10.19
2022-11-25T21:21:45.786Z,10.17
2022-11-25T21:24:21.317Z,10.12
2022-11-25T21:26:50.871Z,10.05
2022-11-25T21:29:20.335Z,10.00
2022-11-25T21:31:49.847Z,9.97
2022-11-25T21:34:22.009Z,9.95
2022-11-25T21:36:52.865Z,9.87
2022-11-25T21:39:30.039Z,9.86
2022-11-25T21:42:00.836Z,9.84
2022-11-25T21:44:33.160Z,9.80
2022-11-25T21:47:02.935Z,9.78
2022-11-25T21:49:34.994Z,9.74
2022-11-25T21:52:04.451Z,9.62
2022-11-25T21:54:33.902Z,9.62
2022-11-25T21:57:03.402Z,9.57
2022-11-25T21:59:32.852Z,9.51
2022-11-25T22:02:02.315Z,9.48
2022-11-25T22:04:31.747Z,9.50
2022-11-25T22:07:03.819Z,9.52
2022-11-25T22:09:33.275Z,9.41
2022-11-25T22:12:02.775Z,9.50
2022-11-25T22:14:34.755Z,9.42
2022-11-25T22:17:04.491Z,9.38
2022-11-25T22:19:33.988Z,9.43
2022-11-25T22:22:06.025Z,9.35
2022-11-25T22:24:35.653Z,9.33
2022-11-25T22:27:07.213Z,9.31
2022-11-25T22:29:37.518Z,9.37
2022-11-25T22:32:12.418Z,9.33
2022-11-25T22:34:42.221Z,9.30
2022-11-25T22:37:17.762Z,9.31
2022-11-25T22:39:47.300Z,9.29
2022-11-25T22:42:28.012Z,9.29
2022-11-25T22:44:57.769Z,9.31
2022-11-25T22:47:29.669Z,9.32
2022-11-25T22:49:59.160Z,9.23
2022-11-25T22:52:32.802Z,9.25
2022-11-25T22:55:02.383Z,9.21
2022-11-25T22:57:32.147Z,9.23
2022-11-25T23:00:01.875Z,9.21
2022-11-25T23:02:34.750Z,9.15
2022-11-25T23:05:04.424Z,9.14
2022-11-25T23:07:36.519Z,9.13
2022-11-25T23:10:08.853Z,9.10
2022-11-25T23:12:38.340Z,9.08
2022-11-25T23:15:08.980Z,9.04
2022-11-25T23:17:38.432Z,9.05
2022-11-25T23:20:15.575Z,9.06
2022-11-25T23:22:47.628Z,9.03
2022-11-25T23:25:18.641Z,9.01
2022-11-25T23:27:48.110Z,8.92
2022-11-25T23:30:18.544Z,8.98
2022-11-25T23:32:48.260Z,8.90
2022-11-25T23:35:18.712Z,8.95
2022-11-25T23:37:56.430Z,8.93
2022-11-25T23:40:26.906Z,8.92
2022-11-25T23:42:56.496Z,8.94
2022-11-25T23:45:27.320Z,8.95
2022-11-25T23:47:57.743Z,8.94
2022-11-25T23:50:30.577Z,8.97
2022-11-25T23:53:04.326Z,8.96
2022-11-25T23:55:35.063Z,8.82
2022-11-25T23:58:05.054Z,8.74
